Airport ICAO


19:07 UTC

14°C

Light drizzle


An affordable passengers' Moving Map for your aircraft. Made for the iPad and the iPhone
More information here

EGLF Farnborough


London UNITED KINGDOM   VFR


METAR EGLF 171850Z 35003KT 9999 -DZ BKN027 14/13 Q1022 0h17min

TAF EGLF 171659Z 1718/1721 01005KT 9999 BKN018 PROB40 TEMPO 1718/1721 8000 RA BKN006 2h08min





NOTAMS

OPEN